createdAt,value
2019-01-25T00:02:12.631Z,59.10
2019-01-25T00:04:42.179Z,52.07
2019-01-25T00:07:11.768Z,48.70
2019-01-25T00:09:41.410Z,53.47
2019-01-25T00:12:11.077Z,53.83
2019-01-25T00:14:41.580Z,53.27
2019-01-25T00:17:11.374Z,55.33
2019-01-25T00:19:41.016Z,53.87
2019-01-25T00:22:11.726Z,53.27
2019-01-25T00:24:42.497Z,55.13
2019-01-25T00:27:12.199Z,56.93
2019-01-25T00:29:41.768Z,51.60
2019-01-25T00:32:11.364Z,54.13
2019-01-25T00:34:40.951Z,53.73
2019-01-25T00:37:10.520Z,54.27
2019-01-25T00:39:40.106Z,53.17
2019-01-25T00:42:09.721Z,58.17
2019-01-25T00:44:39.277Z,52.70
2019-01-25T00:47:08.883Z,54.77
2019-01-25T00:49:38.717Z,57.33
2019-01-25T00:52:08.332Z,52.00
2019-01-25T00:54:37.916Z,55.77
2019-01-25T00:57:07.832Z,55.90
2019-01-25T00:59:38.973Z,53.90
2019-01-25T01:02:08.575Z,52.43
2019-01-25T01:04:38.226Z,55.07
2019-01-25T01:07:08.661Z,52.27
2019-01-25T01:09:38.254Z,55.40
2019-01-25T01:12:09.017Z,45.77
2019-01-25T01:14:40.703Z,43.23
2019-01-25T01:17:10.309Z,49.30
2019-01-25T01:19:39.886Z,51.27
2019-01-25T01:22:09.475Z,49.70
2019-01-25T01:24:39.044Z,53.10
2019-01-25T01:27:08.705Z,51.20
2019-01-25T01:29:38.562Z,48.10
2019-01-25T01:32:08.500Z,45.70
2019-01-25T01:34:38.064Z,46.97
2019-01-25T01:37:07.715Z,56.23
2019-01-25T01:39:38.446Z,54.67
2019-01-25T01:42:08.021Z,44.83
2019-01-25T01:44:37.606Z,45.17
2019-01-25T01:47:07.449Z,45.43
2019-01-25T01:49:36.998Z,51.03
2019-01-25T01:52:06.594Z,50.37
2019-01-25T01:54:36.226Z,49.90
2019-01-25T01:57:05.939Z,40.37
2019-01-25T01:59:37.234Z,44.93
2019-01-25T02:02:07.180Z,41.30
2019-01-25T02:04:36.773Z,45.27
2019-01-25T02:07:06.421Z,48.20
2019-01-25T02:09:36.017Z,36.73
2019-01-25T02:12:05.664Z,40.27
2019-01-25T02:14:35.582Z,40.00
2019-01-25T02:17:06.206Z,41.23
2019-01-25T02:19:37.452Z,38.23
2019-01-25T02:22:07.048Z,34.03
2019-01-25T02:24:36.610Z,44.10
2019-01-25T02:27:06.373Z,41.90
2019-01-25T02:29:35.959Z,41.50
2019-01-25T02:32:05.662Z,42.27
2019-01-25T02:34:35.259Z,45.13
2019-01-25T02:37:05.153Z,47.63
2019-01-25T02:39:36.205Z,40.10
2019-01-25T02:42:05.864Z,47.30
2019-01-25T02:44:35.457Z,38.03
2019-01-25T02:47:05.106Z,33.60
2019-01-25T02:49:34.682Z,33.93
2019-01-25T02:52:04.442Z,31.40
2019-01-25T02:54:34.021Z,36.50
2019-01-25T02:57:03.626Z,40.53
2019-01-25T02:59:33.194Z,35.30
2019-01-25T03:02:02.760Z,40.70
2019-01-25T03:04:32.349Z,40.20
2019-01-25T03:07:01.923Z,40.10
2019-01-25T03:09:31.776Z,41.93
2019-01-25T03:12:01.385Z,45.27
2019-01-25T03:14:30.973Z,47.00
2019-01-25T03:17:00.544Z,47.67
2019-01-25T03:19:30.149Z,51.53
2019-01-25T03:21:59.744Z,44.40
2019-01-25T03:24:29.301Z,45.60
2019-01-25T03:26:58.891Z,40.57
2019-01-25T03:29:28.489Z,66.33
2019-01-25T03:31:58.057Z,56.30
2019-01-25T03:34:27.631Z,47.20
2019-01-25T03:36:57.219Z,47.93
2019-01-25T03:39:26.789Z,43.27
2019-01-25T03:41:56.382Z,36.73
2019-01-25T03:44:25.952Z,37.87
2019-01-25T03:46:55.797Z,40.17
2019-01-25T03:49:25.383Z,39.73
2019-01-25T03:51:54.956Z,40.20
2019-01-25T03:54:24.531Z,38.43
2019-01-25T03:56:54.128Z,37.97
2019-01-25T03:59:23.730Z,37.83
2019-01-25T04:01:53.307Z,39.87
2019-01-25T04:04:22.890Z,38.03
2019-01-25T04:06:52.460Z,43.60
2019-01-25T04:09:22.075Z,37.20
2019-01-25T04:11:51.722Z,38.43
2019-01-25T04:14:21.308Z,40.53
2019-01-25T04:16:50.894Z,42.00
2019-01-25T04:19:20.554Z,41.47
2019-01-25T04:21:50.131Z,39.10
2019-01-25T04:24:19.690Z,40.17
2019-01-25T04:26:49.259Z,43.07
2019-01-25T04:29:18.819Z,43.43
2019-01-25T04:31:48.409Z,44.47
2019-01-25T04:34:17.970Z,43.23
2019-01-25T04:36:47.542Z,43.30
2019-01-25T04:39:17.117Z,43.83
2019-01-25T04:41:46.688Z,41.30
2019-01-25T04:44:16.264Z,45.23
2019-01-25T04:46:45.837Z,42.13
2019-01-25T04:49:15.418Z,44.43
2019-01-25T04:51:45.030Z,45.03
2019-01-25T04:54:14.618Z,44.40
2019-01-25T04:56:44.203Z,42.77
2019-01-25T04:59:13.769Z,46.63
2019-01-25T05:01:43.420Z,49.67
2019-01-25T05:04:12.958Z,50.93
2019-01-25T05:06:42.593Z,47.47
2019-01-25T05:09:12.162Z,47.40
2019-01-25T05:11:44.442Z,51.40
2019-01-25T05:14:14.002Z,50.10
2019-01-25T05:16:43.587Z,48.63
2019-01-25T05:19:13.136Z,49.83
2019-01-25T05:21:42.710Z,51.70
2019-01-25T05:24:12.687Z,47.77
2019-01-25T05:26:42.275Z,49.63
2019-01-25T05:29:11.816Z,54.07
2019-01-25T05:31:41.413Z,52.67
2019-01-25T05:34:10.948Z,52.17
2019-01-25T05:36:40.495Z,51.77
2019-01-25T05:39:10.077Z,48.30
2019-01-25T05:41:39.654Z,48.73
2019-01-25T05:44:09.194Z,48.30
2019-01-25T05:46:38.761Z,54.87
2019-01-25T05:49:08.421Z,54.53
2019-01-25T05:51:37.957Z,50.17
2019-01-25T05:54:07.754Z,50.87
2019-01-25T05:56:41.861Z,50.43
2019-01-25T05:59:11.440Z,49.33
2019-01-25T06:01:44.823Z,52.13
2019-01-25T06:04:14.389Z,49.03
2019-01-25T06:06:45.437Z,49.30
2019-01-25T06:09:21.465Z,49.17
2019-01-25T06:11:52.783Z,50.37
2019-01-25T06:14:22.335Z,48.83
2019-01-25T06:16:51.894Z,47.70
2019-01-25T06:19:21.540Z,51.43
2019-01-25T06:21:55.342Z,55.43
2019-01-25T06:24:24.880Z,51.20
2019-01-25T06:26:54.564Z,51.40
2019-01-25T06:29:25.753Z,51.20
2019-01-25T06:31:55.298Z,59.87
2019-01-25T06:34:24.854Z,57.47
2019-01-25T06:36:54.418Z,53.77
2019-01-25T06:39:25.785Z,49.37
2019-01-25T06:41:55.655Z,58.07
2019-01-25T06:44:25.194Z,52.93
2019-01-25T06:46:55.955Z,57.27
2019-01-25T06:49:25.571Z,54.87
2019-01-25T06:51:55.109Z,51.73
2019-01-25T06:54:24.667Z,54.67
2019-01-25T06:56:54.231Z,54.53
2019-01-25T06:59:23.842Z,58.43
2019-01-25T07:01:55.041Z,58.63
2019-01-25T07:04:24.586Z,62.50
2019-01-25T07:06:54.140Z,59.47
2019-01-25T07:09:23.762Z,60.00
2019-01-25T07:11:55.539Z,60.20
2019-01-25T07:14:25.149Z,59.07
2019-01-25T07:16:54.718Z,55.60
2019-01-25T07:19:24.269Z,49.93
2019-01-25T07:21:53.820Z,55.97
2019-01-25T07:24:27.935Z,59.37
2019-01-25T07:26:57.553Z,60.17
2019-01-25T07:29:27.108Z,60.73
2019-01-25T07:31:57.141Z,57.40
2019-01-25T07:34:26.754Z,52.30
2019-01-25T07:36:56.294Z,61.00
2019-01-25T07:39:28.792Z,60.23
2019-01-25T07:41:59.434Z,55.70
2019-01-25T07:44:30.022Z,52.40
2019-01-25T07:46:59.593Z,49.40
2019-01-25T07:49:29.176Z,57.63
2019-01-25T07:51:59.935Z,60.00
2019-01-25T07:54:29.718Z,51.70
2019-01-25T07:56:59.348Z,59.30
2019-01-25T07:59:28.912Z,56.17
2019-01-25T08:01:58.477Z,65.17
2019-01-25T08:04:31.662Z,58.13
2019-01-25T08:07:01.206Z,54.20
2019-01-25T08:09:31.215Z,61.37
2019-01-25T08:12:07.371Z,51.53
2019-01-25T08:14:32.117Z,55.67
2019-01-25T08:17:03.253Z,55.83
2019-01-25T08:19:32.868Z,48.87
2019-01-25T08:22:02.422Z,57.20
2019-01-25T08:24:31.985Z,53.77
2019-01-25T08:27:01.580Z,49.47
2019-01-25T08:29:31.156Z,51.47
2019-01-25T08:32:00.808Z,53.80
2019-01-25T08:34:30.377Z,60.30
2019-01-25T08:37:00.017Z,50.20
2019-01-25T08:39:29.556Z,52.80
2019-01-25T08:41:59.140Z,50.50
2019-01-25T08:44:28.701Z,50.17
2019-01-25T08:46:58.259Z,46.57
2019-01-25T08:49:28.035Z,46.63
2019-01-25T08:51:59.108Z,44.83
2019-01-25T08:54:28.721Z,40.83
2019-01-25T08:56:58.318Z,42.63
2019-01-25T08:59:27.886Z,46.33
2019-01-25T09:01:57.759Z,43.23
2019-01-25T09:04:27.954Z,45.63
2019-01-25T09:06:57.509Z,45.03
2019-01-25T09:09:28.629Z,48.17
2019-01-25T09:11:58.177Z,49.50
2019-01-25T09:14:27.734Z,56.87
2019-01-25T09:16:57.317Z,52.47
2019-01-25T09:19:26.855Z,49.90
2019-01-25T09:21:56.395Z,42.57
2019-01-25T09:24:25.958Z,44.77
2019-01-25T09:26:55.490Z,48.80
2019-01-25T09:29:25.066Z,47.20
2019-01-25T09:31:56.863Z,43.43
2019-01-25T09:34:27.966Z,41.87
2019-01-25T09:36:57.501Z,40.87
2019-01-25T09:39:27.063Z,46.17
2019-01-25T09:41:56.621Z,44.03
2019-01-25T09:44:28.591Z,47.27
2019-01-25T09:46:59.776Z,44.10
2019-01-25T09:49:29.341Z,49.43
2019-01-25T09:51:59.705Z,44.77
2019-01-25T09:54:29.273Z,46.30
2019-01-25T09:56:58.859Z,48.70
2019-01-25T09:59:28.596Z,50.97
2019-01-25T10:01:58.154Z,49.10
2019-01-25T10:04:27.838Z,49.73
2019-01-25T10:06:57.395Z,46.47
2019-01-25T10:09:27.022Z,47.13
2019-01-25T10:11:56.591Z,44.50
2019-01-25T10:14:26.372Z,47.80
2019-01-25T10:16:55.944Z,43.27
2019-01-25T10:19:25.501Z,46.87
2019-01-25T10:21:55.066Z,50.27
2019-01-25T10:24:24.643Z,47.37
2019-01-25T10:26:54.184Z,44.57
2019-01-25T10:29:23.756Z,43.37
2019-01-25T10:31:53.308Z,45.27
2019-01-25T10:34:22.935Z,56.60
2019-01-25T10:36:52.525Z,48.33
2019-01-25T10:39:22.048Z,45.10
2019-01-25T10:41:51.589Z,46.33
2019-01-25T10:44:21.129Z,51.83
2019-01-25T10:46:52.334Z,55.30
2019-01-25T10:49:22.021Z,50.43
2019-01-25T10:51:51.595Z,57.27
2019-01-25T10:54:21.181Z,52.80
2019-01-25T10:56:50.725Z,59.23
2019-01-25T10:59:20.284Z,60.77
2019-01-25T11:01:49.810Z,56.10
2019-01-25T11:04:19.382Z,57.70
2019-01-25T11:06:48.928Z,62.47
2019-01-25T11:09:18.475Z,59.03
2019-01-25T11:11:49.108Z,62.13
2019-01-25T11:14:18.668Z,64.97
2019-01-25T11:16:48.203Z,58.13
2019-01-25T11:19:17.767Z,65.70
2019-01-25T11:21:47.332Z,66.27
2019-01-25T11:24:16.918Z,64.17
2019-01-25T11:26:46.442Z,69.03
2019-01-25T11:29:16.043Z,68.67
2019-01-25T11:31:47.092Z,68.33
2019-01-25T11:34:16.668Z,68.00
2019-01-25T11:36:46.229Z,63.30
2019-01-25T11:39:15.902Z,72.67
2019-01-25T11:41:45.469Z,68.80
2019-01-25T11:44:15.007Z,75.77
2019-01-25T11:46:44.735Z,80.57
2019-01-25T11:49:14.259Z,75.03
2019-01-25T11:51:43.811Z,67.87
2019-01-25T11:54:13.369Z,70.83
2019-01-25T11:56:46.762Z,76.97
2019-01-25T11:59:16.357Z,69.53
2019-01-25T12:01:49.166Z,76.33
2019-01-25T12:04:18.781Z,70.10
2019-01-25T12:06:48.324Z,68.37
2019-01-25T12:09:17.853Z,73.70
2019-01-25T12:11:51.466Z,67.20
2019-01-25T12:14:21.061Z,65.57
2019-01-25T12:16:50.634Z,58.50
2019-01-25T12:19:20.159Z,62.03
2019-01-25T12:21:49.721Z,65.33
2019-01-25T12:24:19.270Z,59.47
2019-01-25T12:26:48.833Z,63.30
2019-01-25T12:29:18.436Z,61.50
2019-01-25T12:31:47.998Z,58.90
2019-01-25T12:34:17.556Z,62.60
2019-01-25T12:36:47.108Z,60.33
2019-01-25T12:39:18.017Z,57.60
2019-01-25T12:41:47.996Z,52.93
2019-01-25T12:44:17.823Z,55.97
2019-01-25T12:46:47.369Z,57.83
2019-01-25T12:49:16.918Z,52.07
2019-01-25T12:51:47.715Z,51.37
2019-01-25T12:54:17.308Z,55.17
2019-01-25T12:56:47.111Z,54.93
2019-01-25T12:59:16.645Z,49.43
2019-01-25T13:01:46.196Z,44.03
2019-01-25T13:04:16.354Z,51.00
2019-01-25T13:06:46.047Z,52.50
2019-01-25T13:09:19.505Z,45.77
2019-01-25T13:11:48.800Z,49.67
2019-01-25T13:14:18.356Z,45.57
2019-01-25T13:16:47.935Z,50.67
2019-01-25T13:19:17.483Z,51.60
2019-01-25T13:21:47.029Z,47.37
2019-01-25T13:24:16.611Z,51.53
2019-01-25T13:26:46.184Z,47.77
2019-01-25T13:29:16.121Z,46.03
2019-01-25T13:31:48.452Z,48.50
2019-01-25T13:34:18.223Z,48.83
2019-01-25T13:36:56.797Z,49.07
2019-01-25T13:39:21.527Z,52.87
2019-01-25T13:41:51.078Z,42.67
2019-01-25T13:44:20.903Z,47.70
2019-01-25T13:46:50.434Z,49.37
2019-01-25T13:49:19.992Z,44.37
2019-01-25T13:51:49.544Z,43.77
2019-01-25T13:54:19.079Z,46.40
2019-01-25T13:56:48.657Z,45.13
2019-01-25T13:59:18.224Z,40.70
2019-01-25T14:01:47.737Z,44.13
2019-01-25T14:04:17.303Z,36.10
2019-01-25T14:06:46.849Z,37.00
2019-01-25T14:09:16.900Z,38.33
2019-01-25T14:11:46.526Z,37.30
2019-01-25T14:14:16.073Z,37.00
2019-01-25T14:16:45.623Z,38.27
2019-01-25T14:19:15.177Z,36.80
2019-01-25T14:21:44.722Z,33.40
2019-01-25T14:24:16.639Z,30.63
2019-01-25T14:26:45.795Z,35.13
2019-01-25T14:29:15.340Z,32.70
2019-01-25T14:31:44.913Z,33.23
2019-01-25T14:34:14.450Z,34.80
2019-01-25T14:36:43.986Z,35.90
2019-01-25T14:39:13.513Z,31.53
2019-01-25T14:41:43.326Z,36.10
2019-01-25T14:44:13.116Z,36.03
2019-01-25T14:46:42.664Z,39.17
2019-01-25T14:49:12.221Z,34.17
2019-01-25T14:51:41.850Z,35.20
2019-01-25T14:54:11.415Z,37.20
2019-01-25T14:56:40.963Z,35.53
2019-01-25T14:59:10.807Z,34.97
2019-01-25T15:01:40.356Z,36.30
2019-01-25T15:04:09.927Z,33.60
2019-01-25T15:06:39.470Z,35.70
2019-01-25T15:09:10.373Z,32.83
2019-01-25T15:11:40.098Z,35.90
2019-01-25T15:14:09.707Z,35.33
2019-01-25T15:16:41.917Z,33.27
2019-01-25T15:19:11.518Z,36.70
2019-01-25T15:21:41.103Z,33.37
2019-01-25T15:24:10.650Z,32.20
2019-01-25T15:26:40.220Z,35.27
2019-01-25T15:29:09.744Z,36.77
2019-01-25T15:31:39.331Z,35.10
2019-01-25T15:34:12.992Z,31.00
2019-01-25T15:36:42.560Z,29.53
2019-01-25T15:39:12.222Z,32.43
2019-01-25T15:41:41.995Z,32.63
2019-01-25T15:44:11.538Z,33.30
2019-01-25T15:46:41.068Z,32.37
2019-01-25T15:49:10.733Z,32.03
2019-01-25T15:51:40.341Z,34.67
2019-01-25T15:54:12.275Z,33.20
2019-01-25T15:56:41.882Z,34.17
2019-01-25T15:59:11.417Z,32.80
2019-01-25T16:01:40.957Z,35.27
2019-01-25T16:04:10.485Z,37.17
2019-01-25T16:06:40.040Z,34.93
2019-01-25T16:09:14.089Z,38.30
2019-01-25T16:11:42.740Z,36.00
2019-01-25T16:14:17.865Z,37.33
2019-01-25T16:16:43.864Z,35.87
2019-01-25T16:19:13.385Z,36.50
2019-01-25T16:21:43.196Z,36.83
2019-01-25T16:24:14.278Z,37.27
2019-01-25T16:26:44.430Z,33.93
2019-01-25T16:29:14.050Z,34.43
2019-01-25T16:31:45.233Z,35.47
2019-01-25T16:34:17.946Z,37.70
2019-01-25T16:36:47.463Z,38.60
2019-01-25T16:39:16.996Z,33.73
2019-01-25T16:41:46.563Z,34.10
2019-01-25T16:44:25.377Z,32.77
2019-01-25T16:46:49.833Z,37.30
2019-01-25T16:49:19.389Z,35.73
2019-01-25T16:51:48.930Z,39.67
2019-01-25T16:54:18.500Z,36.40
2019-01-25T16:56:48.025Z,35.17
2019-01-25T16:59:17.565Z,38.47
2019-01-25T17:01:47.141Z,41.50
2019-01-25T17:04:16.730Z,38.90
2019-01-25T17:06:46.232Z,45.40
2019-01-25T17:09:15.798Z,37.70
2019-01-25T17:11:46.895Z,38.47
2019-01-25T17:14:16.510Z,41.70
2019-01-25T17:16:46.064Z,35.57
2019-01-25T17:19:18.559Z,38.57
2019-01-25T17:21:48.107Z,41.17
2019-01-25T17:24:17.649Z,36.07
2019-01-25T17:26:47.195Z,39.83
2019-01-25T17:29:18.518Z,38.87
2019-01-25T17:31:48.132Z,39.27
2019-01-25T17:34:17.678Z,39.03
2019-01-25T17:36:47.192Z,38.17
2019-01-25T17:39:17.025Z,40.03
2019-01-25T17:41:46.583Z,36.80
2019-01-25T17:44:16.119Z,37.80
2019-01-25T17:46:45.935Z,36.63
2019-01-25T17:49:17.178Z,35.47
2019-01-25T17:51:47.492Z,35.33
2019-01-25T17:54:17.042Z,37.47
2019-01-25T17:56:46.591Z,33.40
2019-01-25T17:59:16.181Z,35.00
2019-01-25T18:01:45.932Z,33.07
2019-01-25T18:04:15.476Z,33.67
2019-01-25T18:06:45.012Z,29.67
2019-01-25T18:09:14.546Z,31.50
2019-01-25T18:11:47.589Z,25.93
2019-01-25T18:14:17.118Z,27.00
2019-01-25T18:16:46.677Z,26.00
2019-01-25T18:19:16.238Z,23.27
2019-01-25T18:21:45.783Z,23.33
2019-01-25T18:24:15.338Z,24.70
2019-01-25T18:26:44.882Z,22.97
2019-01-25T18:29:14.484Z,21.67
2019-01-25T18:31:44.043Z,20.83
2019-01-25T18:34:13.595Z,19.60
2019-01-25T18:36:43.175Z,23.07
2019-01-25T18:39:12.938Z,21.33
2019-01-25T18:41:42.511Z,17.10
2019-01-25T18:44:12.345Z,16.33
2019-01-25T18:46:43.139Z,16.77
2019-01-25T18:49:12.740Z,14.87
2019-01-25T18:51:42.274Z,14.80
2019-01-25T18:54:11.851Z,13.90
2019-01-25T18:56:41.700Z,13.53
2019-01-25T18:59:11.235Z,10.33
2019-01-25T19:01:41.017Z,11.07
2019-01-25T19:04:10.564Z,11.43
2019-01-25T19:06:40.110Z,10.47
2019-01-25T19:09:09.831Z,9.30
2019-01-25T19:11:39.355Z,9.03
2019-01-25T19:14:08.916Z,9.50
2019-01-25T19:16:38.496Z,10.60
2019-01-25T19:19:08.305Z,7.83
2019-01-25T19:21:38.608Z,8.63
2019-01-25T19:24:08.579Z,6.73
2019-01-25T19:26:38.109Z,9.20
2019-01-25T19:29:07.637Z,8.20
2019-01-25T19:31:37.424Z,8.13
2019-01-25T19:34:07.027Z,7.67
2019-01-25T19:36:36.576Z,7.97
2019-01-25T19:39:09.126Z,6.83
2019-01-25T19:41:40.766Z,7.17
2019-01-25T19:44:10.430Z,7.13
2019-01-25T19:46:39.956Z,7.50
2019-01-25T19:49:09.560Z,8.17
2019-01-25T19:51:39.168Z,8.07
2019-01-25T19:54:11.897Z,6.93
2019-01-25T19:56:41.515Z,6.93
2019-01-25T19:59:11.167Z,7.17
2019-01-25T20:01:40.813Z,8.13
2019-01-25T20:04:10.563Z,7.87
2019-01-25T20:06:40.111Z,6.33
2019-01-25T20:09:09.965Z,7.30
2019-01-25T20:11:39.501Z,7.43
2019-01-25T20:14:09.056Z,7.63
2019-01-25T20:16:38.918Z,9.10
2019-01-25T20:19:08.712Z,8.07
2019-01-25T20:21:38.637Z,7.37
2019-01-25T20:24:10.069Z,8.50
2019-01-25T20:26:42.846Z,8.57
2019-01-25T20:29:12.384Z,7.13
2019-01-25T20:31:41.988Z,7.80
2019-01-25T20:34:11.555Z,6.73
2019-01-25T20:36:41.086Z,7.07
2019-01-25T20:39:10.647Z,5.07
2019-01-25T20:41:40.201Z,7.70
2019-01-25T20:44:11.413Z,6.47
2019-01-25T20:46:41.040Z,7.57
2019-01-25T20:49:10.610Z,8.93
2019-01-25T20:51:40.134Z,7.23
2019-01-25T20:54:09.759Z,7.20
2019-01-25T20:56:39.341Z,7.67
2019-01-25T20:59:08.866Z,7.30
2019-01-25T21:01:38.466Z,7.33
2019-01-25T21:04:08.054Z,5.67
2019-01-25T21:06:39.463Z,6.00
2019-01-25T21:09:09.426Z,6.27
2019-01-25T21:11:39.454Z,5.93
2019-01-25T21:14:09.530Z,6.83
2019-01-25T21:16:39.147Z,7.17
2019-01-25T21:19:08.686Z,5.57
2019-01-25T21:21:39.828Z,6.37
2019-01-25T21:24:10.829Z,4.70
2019-01-25T21:26:41.429Z,5.60
2019-01-25T21:29:10.972Z,4.43
2019-01-25T21:31:40.600Z,5.40
2019-01-25T21:34:10.149Z,5.90
2019-01-25T21:36:40.212Z,4.97
2019-01-25T21:39:10.090Z,5.97
2019-01-25T21:41:41.374Z,4.47
2019-01-25T21:44:11.012Z,5.73
2019-01-25T21:46:40.917Z,6.37
2019-01-25T21:49:11.813Z,5.13
2019-01-25T21:51:41.385Z,5.23
2019-01-25T21:54:10.931Z,5.33
2019-01-25T21:56:40.877Z,4.50
2019-01-25T21:59:10.535Z,5.37
2019-01-25T22:01:43.163Z,7.43
2019-01-25T22:04:31.867Z,4.33
2019-01-25T22:07:01.371Z,6.83
2019-01-25T22:09:33.702Z,5.60
2019-01-25T22:12:03.228Z,4.90
2019-01-25T22:14:32.748Z,5.27
2019-01-25T22:17:02.356Z,4.63
2019-01-25T22:19:31.964Z,5.33
2019-01-25T22:22:01.521Z,5.83
2019-01-25T22:24:31.064Z,4.47
2019-01-25T22:27:00.612Z,5.30
2019-01-25T22:29:30.147Z,6.30
2019-01-25T22:32:03.066Z,4.27
2019-01-25T22:34:32.881Z,4.67
2019-01-25T22:37:02.424Z,4.03
2019-01-25T22:39:32.236Z,6.50
2019-01-25T22:42:01.769Z,6.03
2019-01-25T22:44:31.308Z,4.23
2019-01-25T22:47:00.865Z,4.40
2019-01-25T22:49:30.391Z,5.37
2019-01-25T22:52:03.018Z,4.80
2019-01-25T22:54:32.576Z,4.47
2019-01-25T22:57:02.195Z,3.80
2019-01-25T22:59:31.865Z,4.63
2019-01-25T23:02:01.396Z,4.27
2019-01-25T23:04:50.159Z,4.63
2019-01-25T23:07:19.718Z,4.20
2019-01-25T23:09:49.240Z,4.23
2019-01-25T23:12:18.782Z,4.27
2019-01-25T23:14:48.399Z,4.60
2019-01-25T23:17:18.039Z,4.60
2019-01-25T23:19:51.097Z,4.80
2019-01-25T23:22:20.386Z,5.57
2019-01-25T23:24:49.995Z,5.83
2019-01-25T23:27:19.527Z,5.20
2019-01-25T23:29:49.150Z,6.20
2019-01-25T23:32:18.698Z,7.93
2019-01-25T23:34:48.220Z,6.10
2019-01-25T23:37:17.818Z,7.40
2019-01-25T23:39:47.306Z,7.17
2019-01-25T23:42:16.850Z,7.80
2019-01-25T23:44:46.381Z,8.73
2019-01-25T23:47:15.931Z,8.60
2019-01-25T23:49:45.461Z,7.23
2019-01-25T23:52:15.011Z,7.63
2019-01-25T23:54:44.573Z,9.70
2019-01-25T23:57:14.077Z,8.43
2019-01-25T23:59:43.644Z,10.07
